This is the latest recevied weather packets stored in our database for station/object HJ3GNC-10. If no packets are shown the sender has not sent any weather packets the latest 10 day(s).
| Time | Temp. | Humidity | Pressure | Rain* | Wind** | Luminosity | Snow |
|---|---|---|---|---|---|---|---|
| 1777511166 | 14.44° C | 85% | 1015 hPa | 0 mm | - | - | - |
| 1777510219 | 14.44° C | 84% | 1015 hPa | 0 mm | - | - | - |
| 1777509277 | 14.44° C | 83% | 1015 hPa | 0 mm | - | - | - |
| 1777508332 | 14.44° C | 83% | 1014 hPa | 0 mm | - | - | - |
| 1777506434 | 14.44° C | 81% | 1014 hPa | 0 mm | - | - | - |
| 1777505476 | 15.56° C | 76% | 1013 hPa | 0 mm | - | - | - |
| 1777504533 | 15.56° C | 76% | 1012 hPa | 0 mm | - | - | - |
| 1777503591 | 15.56° C | 74% | 1012 hPa | 0 mm | - | - | - |
| 1777502649 | 15.56° C | 74% | 1012 hPa | 0 mm | - | - | - |
| 1777501706 | 16.11° C | 74% | 1011 hPa | 0 mm | - | - | - |
| 1777500762 | 16.11° C | 74% | 1011 hPa | 0 mm | - | - | - |
| 1777498860 | 16.11° C | 74% | 1011 hPa | 0 mm | - | - | - |
| 1777497911 | 16.11° C | 74% | 1011 hPa | 0 mm | - | - | - |
| 1777496970 | 16.11° C | 73% | 1011 hPa | 0 mm | - | - | - |
| 1777495083 | 16.11° C | 72% | 1011 hPa | 0 mm | - | - | - |
| 1777494140 | 16.11° C | 72% | 1011 hPa | 0 mm | - | - | - |
| 1777493200 | 16.67° C | 72% | 1011 hPa | 0 mm | - | - | - |
| 1777492254 | 16.67° C | 72% | 1011 hPa | 0 mm | - | - | - |
| 1777491313 | 16.67° C | 72% | 1011 hPa | 0 mm | - | - | - |
| 1777490368 | 16.67° C | 72% | 1012 hPa | 0 mm | - | - | - |
| 1777489424 | 16.67° C | 72% | 1012 hPa | 0 mm | - | - | - |
| 1777487515 | 13.33° C | 92% | 1012 hPa | 0 mm | - | - | - |
| 1777486574 | 13.33° C | 92% | 1014 hPa | 0 mm | - | - | - |
| 1777485635 | 13.33° C | 92% | 1014 hPa | 0 mm | - | - | - |
| 1777484683 | 12.78° C | 95% | 1014 hPa | 0 mm | - | - | - |
* Rain latest hour (hover to see other rain measurements)
** Current wind speed in m/s (hover to see current wind gust speed)